sensor_id;sensor_type;location;lat;lon;timestamp;pressure;altitude;pressure_sealevel;temperature;humidity
34241;BME280;20503;50.200;19.508;2023-05-21T00:02:05;101913.60;;;15.91;100.00
34241;BME280;20503;50.200;19.508;2023-05-21T00:07:13;101905.51;;;15.89;100.00
34241;BME280;20503;50.200;19.508;2023-05-21T00:12:21;101902.55;;;15.91;100.00
34241;BME280;20503;50.200;19.508;2023-05-21T00:17:28;101899.16;;;15.89;100.00
34241;BME280;20503;50.200;19.508;2023-05-21T00:22:36;101900.66;;;15.91;100.00
34241;BME280;20503;50.200;19.508;2023-05-21T00:27:44;101901.30;;;15.87;100.00
34241;BME280;20503;50.200;19.508;2023-05-21T00:32:51;101897.48;;;15.81;100.00
34241;BME280;20503;50.200;19.508;2023-05-21T00:38:00;101896.22;;;15.84;100.00
34241;BME280;20503;50.200;19.508;2023-05-21T00:43:07;101889.63;;;15.85;100.00
34241;BME280;20503;50.200;19.508;2023-05-21T00:48:15;101890.88;;;15.89;100.00
34241;BME280;20503;50.200;19.508;2023-05-21T00:53:23;101887.48;;;15.87;100.00
34241;BME280;20503;50.200;19.508;2023-05-21T00:58:31;101888.12;;;15.89;100.00
34241;BME280;20503;50.200;19.508;2023-05-21T01:03:39;101888.55;;;15.86;100.00
34241;BME280;20503;50.200;19.508;2023-05-21T01:08:48;101877.06;;;15.89;100.00
34241;BME280;20503;50.200;19.508;2023-05-21T01:13:56;101879.20;;;15.87;100.00
34241;BME280;20503;50.200;19.508;2023-05-21T01:19:04;101863.48;;;15.81;100.00
34241;BME280;20503;50.200;19.508;2023-05-21T01:24:10;101866.91;;;15.76;100.00
34241;BME280;20503;50.200;19.508;2023-05-21T01:29:18;101862.45;;;15.82;100.00
34241;BME280;20503;50.200;19.508;2023-05-21T01:34:36;101861.37;;;15.83;100.00
34241;BME280;20503;50.200;19.508;2023-05-21T01:39:44;101848.21;;;15.78;100.00
34241;BME280;20503;50.200;19.508;2023-05-21T01:44:50;101853.93;;;15.77;100.00
34241;BME280;20503;50.200;19.508;2023-05-21T01:49:54;101860.08;;;15.79;100.00
34241;BME280;20503;50.200;19.508;2023-05-21T01:54:56;101855.00;;;15.76;100.00
34241;BME280;20503;50.200;19.508;2023-05-21T02:00:05;101862.86;;;15.72;100.00
34241;BME280;20503;50.200;19.508;2023-05-21T02:05:12;101854.62;;;15.66;100.00
34241;BME280;20503;50.200;19.508;2023-05-21T02:10:19;101854.00;;;15.51;100.00
34241;BME280;20503;50.200;19.508;2023-05-21T02:15:27;101855.90;;;15.31;100.00
34241;BME280;20503;50.200;19.508;2023-05-21T02:20:34;101838.71;;;15.16;100.00
34241;BME280;20503;50.200;19.508;2023-05-21T02:25:42;101843.36;;;15.09;100.00
34241;BME280;20503;50.200;19.508;2023-05-21T02:30:50;101838.90;;;15.02;100.00
34241;BME280;20503;50.200;19.508;2023-05-21T02:35:57;101825.35;;;15.00;100.00
34241;BME280;20503;50.200;19.508;2023-05-21T02:41:05;101827.03;;;14.95;100.00
34241;BME280;20503;50.200;19.508;2023-05-21T02:46:13;101825.34;;;14.94;100.00
34241;BME280;20503;50.200;19.508;2023-05-21T02:51:21;101814.52;;;14.99;100.00
34241;BME280;20503;50.200;19.508;2023-05-21T02:56:29;101807.92;;;14.93;100.00
34241;BME280;20503;50.200;19.508;2023-05-21T03:01:37;101809.41;;;14.89;100.00
34241;BME280;20503;50.200;19.508;2023-05-21T03:06:46;101827.02;;;14.88;100.00
34241;BME280;20503;50.200;19.508;2023-05-21T03:11:53;101814.92;;;14.83;100.00
34241;BME280;20503;50.200;19.508;2023-05-21T03:17:01;101809.20;;;14.78;100.00
34241;BME280;20503;50.200;19.508;2023-05-21T03:22:10;101813.21;;;14.69;100.00
34241;BME280;20503;50.200;19.508;2023-05-21T03:27:17;101822.09;;;14.64;100.00
34241;BME280;20503;50.200;19.508;2023-05-21T03:32:24;101814.68;;;14.58;100.00
34241;BME280;20503;50.200;19.508;2023-05-21T03:37:32;101812.12;;;14.57;100.00
34241;BME280;20503;50.200;19.508;2023-05-21T03:42:40;101814.48;;;14.60;100.00
34241;BME280;20503;50.200;19.508;2023-05-21T03:47:48;101808.30;;;14.58;100.00
34241;BME280;20503;50.200;19.508;2023-05-21T03:52:56;101808.72;;;14.55;100.00
34241;BME280;20503;50.200;19.508;2023-05-21T03:58:03;101805.35;;;14.59;100.00
34241;BME280;20503;50.200;19.508;2023-05-21T04:03:11;101806.63;;;14.63;100.00
34241;BME280;20503;50.200;19.508;2023-05-21T04:08:19;101813.83;;;14.64;100.00
34241;BME280;20503;50.200;19.508;2023-05-21T04:13:27;101812.59;;;14.73;100.00
34241;BME280;20503;50.200;19.508;2023-05-21T04:18:35;101807.92;;;14.93;100.00
34241;BME280;20503;50.200;19.508;2023-05-21T04:23:42;101814.75;;;15.29;100.00
34241;BME280;20503;50.200;19.508;2023-05-21T04:28:50;101817.54;;;15.99;100.00
34241;BME280;20503;50.200;19.508;2023-05-21T04:33:58;101822.01;;;16.51;100.00
34241;BME280;20503;50.200;19.508;2023-05-21T04:39:05;101821.80;;;17.07;100.00
34241;BME280;20503;50.200;19.508;2023-05-21T04:44:14;101825.84;;;17.36;100.00
34241;BME280;20503;50.200;19.508;2023-05-21T04:49:21;101829.52;;;17.72;100.00
34241;BME280;20503;50.200;19.508;2023-05-21T04:54:29;101831.22;;;17.91;100.00
34241;BME280;20503;50.200;19.508;2023-05-21T04:59:36;101837.02;;;17.90;100.00
34241;BME280;20503;50.200;19.508;2023-05-21T05:04:44;101841.69;;;18.07;100.00
34241;BME280;20503;50.200;19.508;2023-05-21T05:09:52;101839.20;;;18.53;100.00
34241;BME280;20503;50.200;19.508;2023-05-21T05:14:59;101840.92;;;18.18;100.00
34241;BME280;20503;50.200;19.508;2023-05-21T05:20:08;101841.07;;;18.41;100.00
34241;BME280;20503;50.200;19.508;2023-05-21T05:25:15;101839.95;;;18.60;100.00
34241;BME280;20503;50.200;19.508;2023-05-21T05:30:22;101843.90;;;20.26;100.00
34241;BME280;20503;50.200;19.508;2023-05-21T05:35:30;101853.30;;;21.04;78.24
34241;BME280;20503;50.200;19.508;2023-05-21T05:40:38;101843.48;;;20.85;77.27
34241;BME280;20503;50.200;19.508;2023-05-21T05:45:45;101831.68;;;21.93;68.55
34241;BME280;20503;50.200;19.508;2023-05-21T05:50:52;101833.90;;;21.58;71.10
34241;BME280;20503;50.200;19.508;2023-05-21T06:01:13;101833.97;;;22.61;66.07
34241;BME280;20503;50.200;19.508;2023-05-21T06:06:16;101838.48;;;23.46;65.06
34241;BME280;20503;50.200;19.508;2023-05-21T06:11:24;101843.05;;;25.31;59.31
34241;BME280;20503;50.200;19.508;2023-05-21T06:16:32;101842.48;;;22.49;61.31
34241;BME280;20503;50.200;19.508;2023-05-21T06:21:39;101843.45;;;22.60;59.75
34241;BME280;20503;50.200;19.508;2023-05-21T06:26:47;101825.38;;;22.67;59.99
34241;BME280;20503;50.200;19.508;2023-05-21T06:31:55;101829.75;;;24.77;55.35
34241;BME280;20503;50.200;19.508;2023-05-21T06:37:03;101823.70;;;23.87;56.19
34241;BME280;20503;50.200;19.508;2023-05-21T06:42:11;101815.23;;;25.05;54.77
34241;BME280;20503;50.200;19.508;2023-05-21T06:47:19;101817.13;;;24.08;55.23
34241;BME280;20503;50.200;19.508;2023-05-21T06:52:27;101816.81;;;24.66;54.15
34241;BME280;20503;50.200;19.508;2023-05-21T06:57:36;101821.63;;;24.85;52.79
34241;BME280;20503;50.200;19.508;2023-05-21T07:02:43;101816.85;;;24.76;51.95
34241;BME280;20503;50.200;19.508;2023-05-21T07:07:51;101824.38;;;26.30;50.24
34241;BME280;20503;50.200;19.508;2023-05-21T07:12:58;101812.71;;;25.13;50.89
34241;BME280;20503;50.200;19.508;2023-05-21T07:18:08;101805.69;;;25.75;51.89
34241;BME280;20503;50.200;19.508;2023-05-21T07:23:16;101794.22;;;25.42;50.70
34241;BME280;20503;50.200;19.508;2023-05-21T07:28:24;101813.19;;;26.10;49.92
34241;BME280;20503;50.200;19.508;2023-05-21T07:33:32;101787.44;;;25.73;52.68
34241;BME280;20503;50.200;19.508;2023-05-21T07:38:40;101805.65;;;26.05;51.43
34241;BME280;20503;50.200;19.508;2023-05-21T07:43:48;101810.51;;;26.58;48.98
34241;BME280;20503;50.200;19.508;2023-05-21T07:48:56;101805.84;;;26.24;48.66
34241;BME280;20503;50.200;19.508;2023-05-21T07:54:03;101800.30;;;28.53;45.28
34241;BME280;20503;50.200;19.508;2023-05-21T07:59:15;101797.91;;;27.94;44.41
34241;BME280;20503;50.200;19.508;2023-05-21T08:04:18;101799.34;;;26.38;48.31
34241;BME280;20503;50.200;19.508;2023-05-21T08:09:26;101803.13;;;26.67;47.18
34241;BME280;20503;50.200;19.508;2023-05-21T08:14:34;101794.22;;;25.52;48.10
34241;BME280;20503;50.200;19.508;2023-05-21T08:19:42;101800.09;;;25.06;49.14
34241;BME280;20503;50.200;19.508;2023-05-21T08:24:50;101811.63;;;26.52;47.37
34241;BME280;20503;50.200;19.508;2023-05-21T08:29:57;101798.40;;;25.09;50.73
34241;BME280;20503;50.200;19.508;2023-05-21T08:35:06;101800.36;;;25.04;49.24
34241;BME280;20503;50.200;19.508;2023-05-21T08:40:13;101806.29;;;25.42;48.95
34241;BME280;20503;50.200;19.508;2023-05-21T08:45:22;101803.64;;;26.16;46.47
34241;BME280;20503;50.200;19.508;2023-05-21T08:50:30;101811.21;;;26.15;45.38
34241;BME280;20503;50.200;19.508;2023-05-21T08:55:37;101789.98;;;25.64;45.99
34241;BME280;20503;50.200;19.508;2023-05-21T09:00:45;101796.22;;;26.45;44.75
34241;BME280;20503;50.200;19.508;2023-05-21T09:05:53;101798.97;;;25.71;45.16
34241;BME280;20503;50.200;19.508;2023-05-21T09:11:01;101801.68;;;24.57;44.85
34241;BME280;20503;50.200;19.508;2023-05-21T09:16:09;101803.99;;;24.90;44.72
34241;BME280;20503;50.200;19.508;2023-05-21T09:21:26;101796.64;;;24.64;44.77
34241;BME280;20503;50.200;19.508;2023-05-21T09:26:28;101779.01;;;24.73;45.74
34241;BME280;20503;50.200;19.508;2023-05-21T09:31:33;101794.91;;;24.53;48.54
34241;BME280;20503;50.200;19.508;2023-05-21T09:36:41;101788.11;;;24.34;48.40
34241;BME280;20503;50.200;19.508;2023-05-21T09:41:49;101794.22;;;23.74;46.96
34241;BME280;20503;50.200;19.508;2023-05-21T09:46:57;101797.40;;;23.88;47.72
34241;BME280;20503;50.200;19.508;2023-05-21T09:52:05;101794.66;;;23.98;46.76
34241;BME280;20503;50.200;19.508;2023-05-21T09:57:13;101791.77;;;24.39;47.00
34241;BME280;20503;50.200;19.508;2023-05-21T10:02:22;101780.98;;;24.73;46.90
34241;BME280;20503;50.200;19.508;2023-05-21T10:07:29;101777.40;;;24.16;49.55
34241;BME280;20503;50.200;19.508;2023-05-21T10:12:40;101771.53;;;23.71;49.67
34241;BME280;20503;50.200;19.508;2023-05-21T10:17:47;101756.50;;;23.82;48.04
34241;BME280;20503;50.200;19.508;2023-05-21T10:22:53;101756.70;;;23.24;49.35
34241;BME280;20503;50.200;19.508;2023-05-21T10:28:00;101752.77;;;24.18;51.33
34241;BME280;20503;50.200;19.508;2023-05-21T10:33:07;101753.75;;;23.45;50.06
34241;BME280;20503;50.200;19.508;2023-05-21T10:38:17;101762.08;;;23.77;50.69
34241;BME280;20503;50.200;19.508;2023-05-21T10:59:18;101736.41;;;23.07;52.15
34241;BME280;20503;50.200;19.508;2023-05-21T11:04:28;101739.14;;;23.02;51.21
34241;BME280;20503;50.200;19.508;2023-05-21T11:09:29;101735.16;;;23.24;52.60
34241;BME280;20503;50.200;19.508;2023-05-21T11:14:36;101723.40;;;23.22;53.84
34241;BME280;20503;50.200;19.508;2023-05-21T11:19:43;101744.91;;;24.10;54.80
34241;BME280;20503;50.200;19.508;2023-05-21T11:24:48;101734.90;;;24.29;52.10
34241;BME280;20503;50.200;19.508;2023-05-21T11:29:54;101725.57;;;22.84;53.26
34241;BME280;20503;50.200;19.508;2023-05-21T11:34:59;101724.68;;;23.46;53.91
34241;BME280;20503;50.200;19.508;2023-05-21T11:40:18;101724.13;;;23.08;52.97
34241;BME280;20503;50.200;19.508;2023-05-21T11:45:17;101733.26;;;22.99;54.43
34241;BME280;20503;50.200;19.508;2023-05-21T11:50:19;101715.32;;;22.95;55.95
34241;BME280;20503;50.200;19.508;2023-05-21T11:55:23;101709.09;;;23.14;56.07
34241;BME280;20503;50.200;19.508;2023-05-21T12:00:25;101722.05;;;22.67;54.08
34241;BME280;20503;50.200;19.508;2023-05-21T12:05:27;101714.63;;;23.09;56.35
34241;BME280;20503;50.200;19.508;2023-05-21T12:10:28;101709.80;;;23.00;56.23
34241;BME280;20503;50.200;19.508;2023-05-21T12:15:36;101705.73;;;23.12;54.50
34241;BME280;20503;50.200;19.508;2023-05-21T12:20:43;101714.25;;;22.69;54.10
34241;BME280;20503;50.200;19.508;2023-05-21T12:25:51;101729.65;;;22.72;52.97
34241;BME280;20503;50.200;19.508;2023-05-21T12:30:57;101716.19;;;22.95;54.46
34241;BME280;20503;50.200;19.508;2023-05-21T12:36:05;101721.86;;;23.41;54.62
34241;BME280;20503;50.200;19.508;2023-05-21T12:41:12;101718.48;;;23.34;54.25
34241;BME280;20503;50.200;19.508;2023-05-21T12:46:20;101720.35;;;23.70;51.77
34241;BME280;20503;50.200;19.508;2023-05-21T12:56:45;101702.15;;;23.68;52.14
34241;BME280;20503;50.200;19.508;2023-05-21T13:01:47;101706.48;;;23.07;54.23
34241;BME280;20503;50.200;19.508;2023-05-21T13:06:49;101703.90;;;22.96;54.51
34241;BME280;20503;50.200;19.508;2023-05-21T13:11:57;101708.94;;;22.99;53.99
34241;BME280;20503;50.200;19.508;2023-05-21T13:17:04;101699.48;;;22.69;54.39
34241;BME280;20503;50.200;19.508;2023-05-21T13:22:12;101708.45;;;23.43;52.44
34241;BME280;20503;50.200;19.508;2023-05-21T13:27:19;101694.52;;;23.48;53.39
34241;BME280;20503;50.200;19.508;2023-05-21T13:32:27;101690.98;;;23.21;54.67
34241;BME280;20503;50.200;19.508;2023-05-21T13:37:35;101679.06;;;23.00;55.97
34241;BME280;20503;50.200;19.508;2023-05-21T13:42:43;101677.92;;;22.64;58.53
34241;BME280;20503;50.200;19.508;2023-05-21T13:47:49;101683.50;;;23.32;57.36
34241;BME280;20503;50.200;19.508;2023-05-21T13:52:57;101692.17;;;22.99;56.27
34241;BME280;20503;50.200;19.508;2023-05-21T13:58:04;101676.24;;;23.36;56.13
34241;BME280;20503;50.200;19.508;2023-05-21T14:03:12;101671.50;;;23.31;57.15
34241;BME280;20503;50.200;19.508;2023-05-21T14:08:20;101679.00;;;22.58;57.11
34241;BME280;20503;50.200;19.508;2023-05-21T14:13:27;101677.80;;;23.17;53.96
34241;BME280;20503;50.200;19.508;2023-05-21T14:18:34;101653.23;;;22.83;56.19
34241;BME280;20503;50.200;19.508;2023-05-21T14:23:43;101660.92;;;23.43;53.88
34241;BME280;20503;50.200;19.508;2023-05-21T14:28:49;101671.80;;;22.99;54.01
34241;BME280;20503;50.200;19.508;2023-05-21T14:33:56;101671.45;;;22.90;53.55
34241;BME280;20503;50.200;19.508;2023-05-21T14:39:04;101679.00;;;23.26;51.42
34241;BME280;20503;50.200;19.508;2023-05-21T14:44:11;101671.26;;;22.70;51.78
34241;BME280;20503;50.200;19.508;2023-05-21T14:49:19;101668.21;;;22.72;52.16
34241;BME280;20503;50.200;19.508;2023-05-21T14:54:27;101655.59;;;22.64;52.96
34241;BME280;20503;50.200;19.508;2023-05-21T14:59:34;101664.44;;;22.56;54.63
34241;BME280;20503;50.200;19.508;2023-05-21T15:04:42;101661.00;;;22.44;54.71
34241;BME280;20503;50.200;19.508;2023-05-21T15:09:49;101663.83;;;22.49;54.79
34241;BME280;20503;50.200;19.508;2023-05-21T15:14:57;101657.02;;;22.67;54.54
34241;BME280;20503;50.200;19.508;2023-05-21T15:20:05;101666.27;;;22.19;55.54
34241;BME280;20503;50.200;19.508;2023-05-21T15:25:12;101659.95;;;22.02;55.86
34241;BME280;20503;50.200;19.508;2023-05-21T15:30:20;101664.50;;;22.08;55.52
34241;BME280;20503;50.200;19.508;2023-05-21T15:35:27;101665.28;;;22.04;55.50
34241;BME280;20503;50.200;19.508;2023-05-21T15:40:34;101653.79;;;22.00;54.79
34241;BME280;20503;50.200;19.508;2023-05-21T15:45:42;101669.07;;;22.19;55.38
34241;BME280;20503;50.200;19.508;2023-05-21T15:50:49;101665.13;;;22.15;54.87
34241;BME280;20503;50.200;19.508;2023-05-21T15:55:57;101667.54;;;22.07;54.75
34241;BME280;20503;50.200;19.508;2023-05-21T16:01:04;101673.32;;;22.00;54.69
34241;BME280;20503;50.200;19.508;2023-05-21T16:06:12;101661.45;;;21.88;55.02
34241;BME280;20503;50.200;19.508;2023-05-21T16:11:19;101657.99;;;21.76;54.52
34241;BME280;20503;50.200;19.508;2023-05-21T16:16:27;101665.83;;;21.79;55.51
34241;BME280;20503;50.200;19.508;2023-05-21T16:21:34;101664.38;;;21.77;54.81
34241;BME280;20503;50.200;19.508;2023-05-21T16:26:42;101669.69;;;21.57;54.35
34241;BME280;20503;50.200;19.508;2023-05-21T16:31:50;101665.63;;;21.64;54.29
34241;BME280;20503;50.200;19.508;2023-05-21T16:36:57;101662.91;;;21.69;54.35
34241;BME280;20503;50.200;19.508;2023-05-21T16:42:05;101660.88;;;21.65;55.20
34241;BME280;20503;50.200;19.508;2023-05-21T16:47:13;101660.73;;;21.55;55.32
34241;BME280;20503;50.200;19.508;2023-05-21T16:56:29;101664.66;;;21.37;56.72
34241;BME280;20503;50.200;19.508;2023-05-21T17:01:38;101657.20;;;21.21;56.93
34241;BME280;20503;50.200;19.508;2023-05-21T17:06:44;101656.68;;;21.24;57.09
34241;BME280;20503;50.200;19.508;2023-05-21T17:11:52;101658.97;;;21.27;55.87
34241;BME280;20503;50.200;19.508;2023-05-21T17:17:00;101656.57;;;20.98;56.17
34241;BME280;20503;50.200;19.508;2023-05-21T17:22:08;101653.29;;;20.85;56.36
34241;BME280;20503;50.200;19.508;2023-05-21T17:27:16;101654.29;;;20.79;56.40
34241;BME280;20503;50.200;19.508;2023-05-21T17:32:24;101662.27;;;20.59;57.40
34241;BME280;20503;50.200;19.508;2023-05-21T17:37:32;101658.24;;;20.50;57.78
34241;BME280;20503;50.200;19.508;2023-05-21T17:42:39;101654.68;;;20.38;58.97
34241;BME280;20503;50.200;19.508;2023-05-21T17:47:47;101653.73;;;20.16;59.86
34241;BME280;20503;50.200;19.508;2023-05-21T17:52:55;101659.20;;;19.99;60.32
34241;BME280;20503;50.200;19.508;2023-05-21T17:58:02;101649.05;;;19.77;61.12
34241;BME280;20503;50.200;19.508;2023-05-21T18:03:10;101656.35;;;19.55;61.64
34241;BME280;20503;50.200;19.508;2023-05-21T18:08:18;101654.34;;;19.39;62.10
34241;BME280;20503;50.200;19.508;2023-05-21T18:13:26;101654.87;;;19.24;62.54
34241;BME280;20503;50.200;19.508;2023-05-21T18:18:33;101658.23;;;19.03;63.43
34241;BME280;20503;50.200;19.508;2023-05-21T18:23:41;101661.96;;;18.86;64.32
34241;BME280;20503;50.200;19.508;2023-05-21T18:28:49;101663.38;;;18.66;65.35
34241;BME280;20503;50.200;19.508;2023-05-21T18:33:56;101674.34;;;18.49;66.24
34241;BME280;20503;50.200;19.508;2023-05-21T18:39:08;101681.19;;;18.35;66.45
34241;BME280;20503;50.200;19.508;2023-05-21T18:44:12;101680.59;;;18.33;66.70
34241;BME280;20503;50.200;19.508;2023-05-21T18:49:19;101678.84;;;18.21;66.99
34241;BME280;20503;50.200;19.508;2023-05-21T18:54:27;101685.39;;;18.08;67.45
34241;BME280;20503;50.200;19.508;2023-05-21T18:59:35;101685.57;;;17.95;67.54
34241;BME280;20503;50.200;19.508;2023-05-21T19:04:43;101678.55;;;17.81;67.90
34241;BME280;20503;50.200;19.508;2023-05-21T19:09:51;101686.42;;;17.66;68.31
34241;BME280;20503;50.200;19.508;2023-05-21T19:14:58;101685.42;;;17.61;68.21
34241;BME280;20503;50.200;19.508;2023-05-21T19:20:07;101697.19;;;17.56;67.69
34241;BME280;20503;50.200;19.508;2023-05-21T19:25:14;101687.13;;;17.44;67.65
34241;BME280;20503;50.200;19.508;2023-05-21T19:30:22;101697.41;;;17.37;67.65
34241;BME280;20503;50.200;19.508;2023-05-21T19:35:30;101685.95;;;17.33;67.08
34241;BME280;20503;50.200;19.508;2023-05-21T19:40:38;101682.38;;;17.26;66.75
34241;BME280;20503;50.200;19.508;2023-05-21T19:45:45;101671.63;;;17.18;66.37
34241;BME280;20503;50.200;19.508;2023-05-21T19:50:53;101668.72;;;17.13;66.29
34241;BME280;20503;50.200;19.508;2023-05-21T19:56:01;101677.08;;;17.07;66.64
34241;BME280;20503;50.200;19.508;2023-05-21T20:01:09;101682.90;;;16.99;66.21
34241;BME280;20503;50.200;19.508;2023-05-21T20:06:17;101676.66;;;16.86;66.56
34241;BME280;20503;50.200;19.508;2023-05-21T20:11:25;101681.23;;;16.74;67.16
34241;BME280;20503;50.200;19.508;2023-05-21T20:16:32;101687.43;;;16.69;67.24
34241;BME280;20503;50.200;19.508;2023-05-21T20:21:40;101676.67;;;16.61;66.88
34241;BME280;20503;50.200;19.508;2023-05-21T20:26:48;101677.18;;;16.52;66.46
34241;BME280;20503;50.200;19.508;2023-05-21T20:31:56;101678.91;;;16.46;66.41
34241;BME280;20503;50.200;19.508;2023-05-21T20:37:04;101680.04;;;16.39;66.20
34241;BME280;20503;50.200;19.508;2023-05-21T20:42:11;101677.73;;;16.36;65.74
34241;BME280;20503;50.200;19.508;2023-05-21T20:47:19;101681.80;;;16.27;65.58
34241;BME280;20503;50.200;19.508;2023-05-21T20:52:28;101681.13;;;16.31;64.63
34241;BME280;20503;50.200;19.508;2023-05-21T20:57:35;101670.52;;;16.28;63.76
34241;BME280;20503;50.200;19.508;2023-05-21T21:02:43;101671.36;;;16.29;63.78
34241;BME280;20503;50.200;19.508;2023-05-21T21:07:51;101674.90;;;16.11;64.41
34241;BME280;20503;50.200;19.508;2023-05-21T21:12:59;101676.24;;;15.96;64.73
34241;BME280;20503;50.200;19.508;2023-05-21T21:18:07;101681.41;;;15.92;64.74
34241;BME280;20503;50.200;19.508;2023-05-21T21:23:15;101682.28;;;15.80;65.13
34241;BME280;20503;50.200;19.508;2023-05-21T21:28:23;101680.21;;;15.75;64.88
34241;BME280;20503;50.200;19.508;2023-05-21T21:33:31;101675.35;;;15.71;65.27
34241;BME280;20503;50.200;19.508;2023-05-21T21:38:39;101672.34;;;15.72;64.62
34241;BME280;20503;50.200;19.508;2023-05-21T21:43:47;101673.03;;;15.68;64.78
34241;BME280;20503;50.200;19.508;2023-05-21T21:48:55;101670.45;;;15.73;63.50
34241;BME280;20503;50.200;19.508;2023-05-21T21:54:03;101684.58;;;15.89;61.97
34241;BME280;20503;50.200;19.508;2023-05-21T21:59:11;101682.49;;;15.85;61.80
34241;BME280;20503;50.200;19.508;2023-05-21T22:04:19;101678.42;;;15.87;61.20
34241;BME280;20503;50.200;19.508;2023-05-21T22:09:26;101675.91;;;15.86;60.80
34241;BME280;20503;50.200;19.508;2023-05-21T22:14:35;101667.66;;;15.79;60.76
34241;BME280;20503;50.200;19.508;2023-05-21T22:19:45;101668.45;;;15.86;60.13
34241;BME280;20503;50.200;19.508;2023-05-21T22:24:52;101667.41;;;15.81;60.05
34241;BME280;20503;50.200;19.508;2023-05-21T22:29:58;101667.06;;;15.71;60.25
34241;BME280;20503;50.200;19.508;2023-05-21T22:35:07;101660.09;;;15.62;60.37
34241;BME280;20503;50.200;19.508;2023-05-21T22:40:14;101668.21;;;15.50;60.56
34241;BME280;20503;50.200;19.508;2023-05-21T22:45:22;101656.55;;;15.48;60.44
34241;BME280;20503;50.200;19.508;2023-05-21T22:50:30;101655.50;;;15.43;60.41
34241;BME280;20503;50.200;19.508;2023-05-21T22:55:38;101654.26;;;15.39;60.36
34241;BME280;20503;50.200;19.508;2023-05-21T23:00:46;101663.60;;;15.38;60.20
34241;BME280;20503;50.200;19.508;2023-05-21T23:05:54;101664.02;;;15.28;60.46
34241;BME280;20503;50.200;19.508;2023-05-21T23:11:02;101659.15;;;15.24;60.64
34241;BME280;20503;50.200;19.508;2023-05-21T23:16:11;101654.91;;;15.21;60.22
34241;BME280;20503;50.200;19.508;2023-05-21T23:21:18;101661.72;;;15.25;59.96
34241;BME280;20503;50.200;19.508;2023-05-21T23:26:26;101646.45;;;15.16;59.97
34241;BME280;20503;50.200;19.508;2023-05-21T23:31:34;101650.92;;;15.11;59.92
34241;BME280;20503;50.200;19.508;2023-05-21T23:36:42;101639.05;;;15.10;59.57
34241;BME280;20503;50.200;19.508;2023-05-21T23:41:50;101648.62;;;15.02;59.59
34241;BME280;20503;50.200;19.508;2023-05-21T23:46:58;101650.74;;;15.00;59.52
34241;BME280;20503;50.200;19.508;2023-05-21T23:52:06;101628.05;;;14.98;59.24
34241;BME280;20503;50.200;19.508;2023-05-21T23:57:14;101631.23;;;15.01;59.01
